sensor_id;sensor_type;location;lat;lon;timestamp;P1;durP1;ratioP1;P2;durP2;ratioP2
53313;SDS011;39202;51.468;7.146;2023-05-19T00:00:46;0.63;;;0.63;;
53313;SDS011;39202;51.468;7.146;2023-05-19T00:05:48;0.60;;;0.60;;
53313;SDS011;39202;51.468;7.146;2023-05-19T00:10:55;0.63;;;0.63;;
53313;SDS011;39202;51.468;7.146;2023-05-19T00:15:57;0.60;;;0.60;;
53313;SDS011;39202;51.468;7.146;2023-05-19T00:20:59;0.60;;;0.60;;
53313;SDS011;39202;51.468;7.146;2023-05-19T00:26:02;0.63;;;0.63;;
53313;SDS011;39202;51.468;7.146;2023-05-19T00:31:04;0.70;;;0.70;;
53313;SDS011;39202;51.468;7.146;2023-05-19T00:36:06;0.70;;;0.70;;
53313;SDS011;39202;51.468;7.146;2023-05-19T00:41:10;0.70;;;0.70;;
53313;SDS011;39202;51.468;7.146;2023-05-19T00:46:11;0.60;;;0.60;;
53313;SDS011;39202;51.468;7.146;2023-05-19T00:51:13;0.60;;;0.60;;
53313;SDS011;39202;51.468;7.146;2023-05-19T00:56:17;0.60;;;0.60;;
53313;SDS011;39202;51.468;7.146;2023-05-19T01:01:20;0.70;;;0.70;;
53313;SDS011;39202;51.468;7.146;2023-05-19T01:06:22;0.50;;;0.50;;
53313;SDS011;39202;51.468;7.146;2023-05-19T01:11:25;0.50;;;0.50;;
53313;SDS011;39202;51.468;7.146;2023-05-19T01:16:28;0.60;;;0.60;;
53313;SDS011;39202;51.468;7.146;2023-05-19T01:21:55;0.60;;;0.60;;
53313;SDS011;39202;51.468;7.146;2023-05-19T01:27:20;0.57;;;0.57;;
53313;SDS011;39202;51.468;7.146;2023-05-19T01:32:36;0.60;;;0.60;;
53313;SDS011;39202;51.468;7.146;2023-05-19T01:37:41;0.50;;;0.50;;
53313;SDS011;39202;51.468;7.146;2023-05-19T01:42:44;0.52;;;0.52;;
53313;SDS011;39202;51.468;7.146;2023-05-19T01:47:50;0.63;;;0.63;;
53313;SDS011;39202;51.468;7.146;2023-05-19T01:52:53;0.70;;;0.70;;
53313;SDS011;39202;51.468;7.146;2023-05-19T01:57:59;0.70;;;0.70;;
53313;SDS011;39202;51.468;7.146;2023-05-19T02:03:17;0.60;;;0.60;;
53313;SDS011;39202;51.468;7.146;2023-05-19T02:08:29;0.60;;;0.60;;
53313;SDS011;39202;51.468;7.146;2023-05-19T02:13:35;0.60;;;0.60;;
53313;SDS011;39202;51.468;7.146;2023-05-19T02:18:42;0.50;;;0.50;;
53313;SDS011;39202;51.468;7.146;2023-05-19T02:23:47;0.63;;;0.63;;
53313;SDS011;39202;51.468;7.146;2023-05-19T02:28:48;0.60;;;0.60;;
53313;SDS011;39202;51.468;7.146;2023-05-19T02:33:51;0.50;;;0.50;;
53313;SDS011;39202;51.468;7.146;2023-05-19T02:38:53;0.70;;;0.70;;
53313;SDS011;39202;51.468;7.146;2023-05-19T02:43:55;0.70;;;0.70;;
53313;SDS011;39202;51.468;7.146;2023-05-19T02:48:58;0.63;;;0.63;;
53313;SDS011;39202;51.468;7.146;2023-05-19T02:54:00;0.60;;;0.60;;
53313;SDS011;39202;51.468;7.146;2023-05-19T02:59:01;0.57;;;0.57;;
53313;SDS011;39202;51.468;7.146;2023-05-19T03:04:05;0.60;;;0.60;;
53313;SDS011;39202;51.468;7.146;2023-05-19T03:09:07;0.60;;;0.60;;
53313;SDS011;39202;51.468;7.146;2023-05-19T03:14:09;0.60;;;0.60;;
53313;SDS011;39202;51.468;7.146;2023-05-19T03:19:12;0.57;;;0.57;;
53313;SDS011;39202;51.468;7.146;2023-05-19T03:24:14;0.63;;;0.63;;
53313;SDS011;39202;51.468;7.146;2023-05-19T03:29:16;0.65;;;0.65;;
53313;SDS011;39202;51.468;7.146;2023-05-19T03:34:19;0.55;;;0.55;;
53313;SDS011;39202;51.468;7.146;2023-05-19T03:39:21;0.60;;;0.60;;
53313;SDS011;39202;51.468;7.146;2023-05-19T03:44:23;0.70;;;0.70;;
53313;SDS011;39202;51.468;7.146;2023-05-19T03:49:26;0.60;;;0.60;;
53313;SDS011;39202;51.468;7.146;2023-05-19T03:54:28;0.60;;;0.60;;
53313;SDS011;39202;51.468;7.146;2023-05-19T03:59:30;0.70;;;0.70;;
53313;SDS011;39202;51.468;7.146;2023-05-19T04:04:33;0.60;;;0.60;;
53313;SDS011;39202;51.468;7.146;2023-05-19T04:09:36;0.70;;;0.70;;
53313;SDS011;39202;51.468;7.146;2023-05-19T04:14:38;0.70;;;0.70;;
53313;SDS011;39202;51.468;7.146;2023-05-19T04:19:41;0.60;;;0.60;;
53313;SDS011;39202;51.468;7.146;2023-05-19T04:24:43;0.65;;;0.65;;
53313;SDS011;39202;51.468;7.146;2023-05-19T04:29:45;0.60;;;0.60;;
53313;SDS011;39202;51.468;7.146;2023-05-19T04:34:48;0.68;;;0.68;;
53313;SDS011;39202;51.468;7.146;2023-05-19T04:39:50;0.60;;;0.60;;
53313;SDS011;39202;51.468;7.146;2023-05-19T04:44:52;0.70;;;0.70;;
53313;SDS011;39202;51.468;7.146;2023-05-19T04:49:55;0.70;;;0.70;;
53313;SDS011;39202;51.468;7.146;2023-05-19T04:54:59;0.70;;;0.70;;
53313;SDS011;39202;51.468;7.146;2023-05-19T05:00:01;0.80;;;0.80;;
53313;SDS011;39202;51.468;7.146;2023-05-19T05:05:09;0.57;;;0.57;;
53313;SDS011;39202;51.468;7.146;2023-05-19T05:10:11;0.60;;;0.60;;
53313;SDS011;39202;51.468;7.146;2023-05-19T05:15:13;0.60;;;0.60;;
53313;SDS011;39202;51.468;7.146;2023-05-19T05:20:17;0.70;;;0.70;;
53313;SDS011;39202;51.468;7.146;2023-05-19T05:25:20;0.70;;;0.70;;
53313;SDS011;39202;51.468;7.146;2023-05-19T05:30:22;0.57;;;0.57;;
53313;SDS011;39202;51.468;7.146;2023-05-19T05:35:25;0.60;;;0.60;;
53313;SDS011;39202;51.468;7.146;2023-05-19T05:40:27;0.73;;;0.73;;
53313;SDS011;39202;51.468;7.146;2023-05-19T05:45:29;0.70;;;0.70;;
53313;SDS011;39202;51.468;7.146;2023-05-19T05:50:33;0.70;;;0.70;;
53313;SDS011;39202;51.468;7.146;2023-05-19T05:55:35;0.63;;;0.63;;
53313;SDS011;39202;51.468;7.146;2023-05-19T06:00:37;0.70;;;0.70;;
53313;SDS011;39202;51.468;7.146;2023-05-19T06:05:40;0.73;;;0.73;;
53313;SDS011;39202;51.468;7.146;2023-05-19T06:10:42;0.60;;;0.60;;
53313;SDS011;39202;51.468;7.146;2023-05-19T06:15:44;0.60;;;0.60;;
53313;SDS011;39202;51.468;7.146;2023-05-19T06:20:47;0.60;;;0.60;;
53313;SDS011;39202;51.468;7.146;2023-05-19T06:25:49;0.70;;;0.70;;
53313;SDS011;39202;51.468;7.146;2023-05-19T06:30:50;0.65;;;0.65;;
53313;SDS011;39202;51.468;7.146;2023-05-19T06:35:53;0.70;;;0.70;;
53313;SDS011;39202;51.468;7.146;2023-05-19T06:40:55;0.63;;;0.63;;
53313;SDS011;39202;51.468;7.146;2023-05-19T06:45:57;0.60;;;0.60;;
53313;SDS011;39202;51.468;7.146;2023-05-19T06:51:00;0.55;;;0.55;;
53313;SDS011;39202;51.468;7.146;2023-05-19T06:56:02;0.52;;;0.52;;
53313;SDS011;39202;51.468;7.146;2023-05-19T07:01:04;0.70;;;0.70;;
53313;SDS011;39202;51.468;7.146;2023-05-19T07:06:07;0.70;;;0.70;;
53313;SDS011;39202;51.468;7.146;2023-05-19T07:11:09;0.60;;;0.60;;
53313;SDS011;39202;51.468;7.146;2023-05-19T07:16:11;0.70;;;0.70;;
53313;SDS011;39202;51.468;7.146;2023-05-19T07:21:14;0.73;;;0.73;;
53313;SDS011;39202;51.468;7.146;2023-05-19T07:26:16;0.80;;;0.80;;
53313;SDS011;39202;51.468;7.146;2023-05-19T07:31:17;0.68;;;0.68;;
53313;SDS011;39202;51.468;7.146;2023-05-19T07:36:21;0.60;;;0.60;;
53313;SDS011;39202;51.468;7.146;2023-05-19T07:41:23;0.60;;;0.60;;
53313;SDS011;39202;51.468;7.146;2023-05-19T07:46:25;0.63;;;0.63;;
53313;SDS011;39202;51.468;7.146;2023-05-19T07:51:28;0.70;;;0.70;;
53313;SDS011;39202;51.468;7.146;2023-05-19T07:56:30;0.60;;;0.60;;
53313;SDS011;39202;51.468;7.146;2023-05-19T08:01:32;0.70;;;0.70;;
53313;SDS011;39202;51.468;7.146;2023-05-19T08:06:35;0.60;;;0.60;;
53313;SDS011;39202;51.468;7.146;2023-05-19T08:11:37;0.70;;;0.70;;
53313;SDS011;39202;51.468;7.146;2023-05-19T08:16:39;0.60;;;0.60;;
53313;SDS011;39202;51.468;7.146;2023-05-19T08:21:43;0.60;;;0.60;;
53313;SDS011;39202;51.468;7.146;2023-05-19T08:26:45;0.70;;;0.70;;
53313;SDS011;39202;51.468;7.146;2023-05-19T08:31:46;0.60;;;0.60;;
53313;SDS011;39202;51.468;7.146;2023-05-19T08:36:49;0.60;;;0.60;;
53313;SDS011;39202;51.468;7.146;2023-05-19T08:41:52;0.68;;;0.68;;
53313;SDS011;39202;51.468;7.146;2023-05-19T08:46:54;0.60;;;0.60;;
53313;SDS011;39202;51.468;7.146;2023-05-19T08:51:59;0.68;;;0.68;;
53313;SDS011;39202;51.468;7.146;2023-05-19T08:57:13;0.80;;;0.80;;
53313;SDS011;39202;51.468;7.146;2023-05-19T09:02:15;0.50;;;0.50;;
53313;SDS011;39202;51.468;7.146;2023-05-19T09:07:19;0.60;;;0.60;;
53313;SDS011;39202;51.468;7.146;2023-05-19T09:12:24;0.60;;;0.60;;
53313;SDS011;39202;51.468;7.146;2023-05-19T09:17:27;0.70;;;0.70;;
53313;SDS011;39202;51.468;7.146;2023-05-19T09:22:30;0.60;;;0.60;;
53313;SDS011;39202;51.468;7.146;2023-05-19T09:27:34;0.60;;;0.60;;
53313;SDS011;39202;51.468;7.146;2023-05-19T09:32:36;0.60;;;0.60;;
53313;SDS011;39202;51.468;7.146;2023-05-19T09:37:39;0.60;;;0.60;;
53313;SDS011;39202;51.468;7.146;2023-05-19T09:42:41;0.70;;;0.70;;
53313;SDS011;39202;51.468;7.146;2023-05-19T09:47:44;0.80;;;0.80;;
53313;SDS011;39202;51.468;7.146;2023-05-19T09:52:47;0.60;;;0.60;;
53313;SDS011;39202;51.468;7.146;2023-05-19T09:57:49;0.70;;;0.70;;
53313;SDS011;39202;51.468;7.146;2023-05-19T10:02:51;0.73;;;0.73;;
53313;SDS011;39202;51.468;7.146;2023-05-19T10:07:56;0.68;;;0.68;;
53313;SDS011;39202;51.468;7.146;2023-05-19T10:12:58;0.90;;;0.90;;
53313;SDS011;39202;51.468;7.146;2023-05-19T10:18:00;0.98;;;0.98;;
53313;SDS011;39202;51.468;7.146;2023-05-19T10:23:04;1.02;;;0.80;;
53313;SDS011;39202;51.468;7.146;2023-05-19T10:28:07;0.90;;;0.90;;
53313;SDS011;39202;51.468;7.146;2023-05-19T10:33:14;0.80;;;0.80;;
53313;SDS011;39202;51.468;7.146;2023-05-19T10:38:23;1.52;;;1.00;;
53313;SDS011;39202;51.468;7.146;2023-05-19T10:43:43;0.90;;;0.90;;
53313;SDS011;39202;51.468;7.146;2023-05-19T10:48:54;1.13;;;0.80;;
53313;SDS011;39202;51.468;7.146;2023-05-19T10:53:57;1.10;;;1.00;;
53313;SDS011;39202;51.468;7.146;2023-05-19T10:59:02;0.90;;;0.90;;
53313;SDS011;39202;51.468;7.146;2023-05-19T11:04:04;1.23;;;1.08;;
53313;SDS011;39202;51.468;7.146;2023-05-19T11:09:12;0.80;;;0.80;;
53313;SDS011;39202;51.468;7.146;2023-05-19T11:14:16;1.13;;;0.90;;
53313;SDS011;39202;51.468;7.146;2023-05-19T11:19:19;1.10;;;0.90;;
53313;SDS011;39202;51.468;7.146;2023-05-19T11:24:34;1.00;;;0.90;;
53313;SDS011;39202;51.468;7.146;2023-05-19T11:29:37;1.23;;;1.13;;
53313;SDS011;39202;51.468;7.146;2023-05-19T11:34:42;1.08;;;1.00;;
53313;SDS011;39202;51.468;7.146;2023-05-19T11:39:46;1.08;;;1.00;;
53313;SDS011;39202;51.468;7.146;2023-05-19T11:44:48;1.00;;;1.00;;
53313;SDS011;39202;51.468;7.146;2023-05-19T11:49:50;1.25;;;0.90;;
53313;SDS011;39202;51.468;7.146;2023-05-19T11:54:53;0.85;;;0.85;;
53313;SDS011;39202;51.468;7.146;2023-05-19T11:59:55;1.73;;;1.00;;
53313;SDS011;39202;51.468;7.146;2023-05-19T12:04:57;0.90;;;0.90;;
53313;SDS011;39202;51.468;7.146;2023-05-19T12:10:00;1.13;;;1.02;;
53313;SDS011;39202;51.468;7.146;2023-05-19T12:15:03;1.88;;;1.40;;
53313;SDS011;39202;51.468;7.146;2023-05-19T12:20:06;1.30;;;1.20;;
53313;SDS011;39202;51.468;7.146;2023-05-19T12:25:11;1.30;;;1.20;;
53313;SDS011;39202;51.468;7.146;2023-05-19T12:30:12;1.35;;;1.25;;
53313;SDS011;39202;51.468;7.146;2023-05-19T12:35:14;1.40;;;1.30;;
53313;SDS011;39202;51.468;7.146;2023-05-19T12:40:17;1.45;;;1.20;;
53313;SDS011;39202;51.468;7.146;2023-05-19T12:45:20;1.20;;;1.10;;
53313;SDS011;39202;51.468;7.146;2023-05-19T12:50:28;1.30;;;1.08;;
53313;SDS011;39202;51.468;7.146;2023-05-19T12:55:35;1.30;;;1.20;;
53313;SDS011;39202;51.468;7.146;2023-05-19T13:00:39;1.10;;;1.10;;
53313;SDS011;39202;51.468;7.146;2023-05-19T13:05:43;1.30;;;0.95;;
53313;SDS011;39202;51.468;7.146;2023-05-19T13:10:47;1.00;;;1.00;;
53313;SDS011;39202;51.468;7.146;2023-05-19T13:15:49;1.02;;;1.02;;
53313;SDS011;39202;51.468;7.146;2023-05-19T13:20:51;1.48;;;1.25;;
53313;SDS011;39202;51.468;7.146;2023-05-19T13:25:55;1.00;;;1.00;;
53313;SDS011;39202;51.468;7.146;2023-05-19T13:30:56;1.25;;;1.13;;
53313;SDS011;39202;51.468;7.146;2023-05-19T13:35:58;1.30;;;1.20;;
53313;SDS011;39202;51.468;7.146;2023-05-19T13:41:01;1.10;;;1.10;;
53313;SDS011;39202;51.468;7.146;2023-05-19T13:46:03;1.30;;;1.20;;
53313;SDS011;39202;51.468;7.146;2023-05-19T13:51:05;1.60;;;1.20;;
53313;SDS011;39202;51.468;7.146;2023-05-19T13:56:08;1.45;;;1.10;;
53313;SDS011;39202;51.468;7.146;2023-05-19T14:01:10;1.33;;;1.23;;
53313;SDS011;39202;51.468;7.146;2023-05-19T14:06:12;1.20;;;1.10;;
53313;SDS011;39202;51.468;7.146;2023-05-19T14:11:17;1.30;;;1.20;;
53313;SDS011;39202;51.468;7.146;2023-05-19T14:16:20;1.42;;;1.27;;
53313;SDS011;39202;51.468;7.146;2023-05-19T14:21:22;1.20;;;1.10;;
53313;SDS011;39202;51.468;7.146;2023-05-19T14:26:25;1.30;;;1.20;;
53313;SDS011;39202;51.468;7.146;2023-05-19T14:31:27;1.40;;;1.30;;
53313;SDS011;39202;51.468;7.146;2023-05-19T14:36:28;0.98;;;0.98;;
53313;SDS011;39202;51.468;7.146;2023-05-19T14:41:33;1.25;;;1.10;;
53313;SDS011;39202;51.468;7.146;2023-05-19T14:46:35;1.15;;;1.10;;
53313;SDS011;39202;51.468;7.146;2023-05-19T14:51:36;1.23;;;1.20;;
53313;SDS011;39202;51.468;7.146;2023-05-19T14:56:39;1.20;;;1.20;;
53313;SDS011;39202;51.468;7.146;2023-05-19T15:01:41;1.02;;;0.98;;
53313;SDS011;39202;51.468;7.146;2023-05-19T15:06:43;1.10;;;1.00;;
53313;SDS011;39202;51.468;7.146;2023-05-19T15:11:46;1.30;;;1.20;;
53313;SDS011;39202;51.468;7.146;2023-05-19T15:16:48;1.17;;;1.10;;
53313;SDS011;39202;51.468;7.146;2023-05-19T15:21:49;1.48;;;1.02;;
53313;SDS011;39202;51.468;7.146;2023-05-19T15:26:53;0.90;;;0.90;;
53313;SDS011;39202;51.468;7.146;2023-05-19T15:31:55;0.90;;;0.90;;
53313;SDS011;39202;51.468;7.146;2023-05-19T15:36:57;0.82;;;0.82;;
53313;SDS011;39202;51.468;7.146;2023-05-19T15:42:00;1.02;;;0.95;;
53313;SDS011;39202;51.468;7.146;2023-05-19T15:47:01;1.00;;;1.00;;
53313;SDS011;39202;51.468;7.146;2023-05-19T15:52:03;0.93;;;0.93;;
53313;SDS011;39202;51.468;7.146;2023-05-19T15:57:07;0.95;;;0.95;;
53313;SDS011;39202;51.468;7.146;2023-05-19T16:02:09;1.20;;;1.10;;
53313;SDS011;39202;51.468;7.146;2023-05-19T16:07:11;1.02;;;0.93;;
53313;SDS011;39202;51.468;7.146;2023-05-19T16:12:14;1.17;;;1.00;;
53313;SDS011;39202;51.468;7.146;2023-05-19T16:17:16;1.15;;;1.10;;
53313;SDS011;39202;51.468;7.146;2023-05-19T16:22:17;1.13;;;1.02;;
53313;SDS011;39202;51.468;7.146;2023-05-19T16:27:24;1.20;;;1.10;;
53313;SDS011;39202;51.468;7.146;2023-05-19T16:32:26;0.90;;;0.90;;
53313;SDS011;39202;51.468;7.146;2023-05-19T16:37:28;0.90;;;0.90;;
53313;SDS011;39202;51.468;7.146;2023-05-19T16:42:31;1.00;;;1.00;;
53313;SDS011;39202;51.468;7.146;2023-05-19T16:47:33;0.80;;;0.80;;
53313;SDS011;39202;51.468;7.146;2023-05-19T16:52:35;1.30;;;1.20;;
53313;SDS011;39202;51.468;7.146;2023-05-19T16:57:38;1.02;;;1.02;;
53313;SDS011;39202;51.468;7.146;2023-05-19T17:02:40;1.25;;;0.90;;
53313;SDS011;39202;51.468;7.146;2023-05-19T17:07:42;1.02;;;1.02;;
53313;SDS011;39202;51.468;7.146;2023-05-19T17:12:45;0.90;;;0.90;;
53313;SDS011;39202;51.468;7.146;2023-05-19T17:17:46;0.80;;;0.80;;
53313;SDS011;39202;51.468;7.146;2023-05-19T17:22:48;0.90;;;0.90;;
53313;SDS011;39202;51.468;7.146;2023-05-19T17:27:51;0.93;;;0.93;;
53313;SDS011;39202;51.468;7.146;2023-05-19T17:32:54;0.82;;;0.82;;
53313;SDS011;39202;51.468;7.146;2023-05-19T17:37:57;0.98;;;0.98;;
53313;SDS011;39202;51.468;7.146;2023-05-19T17:43:01;0.82;;;0.82;;
53313;SDS011;39202;51.468;7.146;2023-05-19T17:48:02;0.90;;;0.90;;
53313;SDS011;39202;51.468;7.146;2023-05-19T17:53:05;0.80;;;0.80;;
53313;SDS011;39202;51.468;7.146;2023-05-19T17:58:09;0.90;;;0.90;;
53313;SDS011;39202;51.468;7.146;2023-05-19T18:03:11;0.90;;;0.90;;
53313;SDS011;39202;51.468;7.146;2023-05-19T18:08:13;0.80;;;0.80;;
53313;SDS011;39202;51.468;7.146;2023-05-19T18:13:16;0.80;;;0.80;;
53313;SDS011;39202;51.468;7.146;2023-05-19T18:18:18;1.00;;;1.00;;
53313;SDS011;39202;51.468;7.146;2023-05-19T18:23:20;0.90;;;0.90;;
53313;SDS011;39202;51.468;7.146;2023-05-19T18:28:23;0.90;;;0.90;;
53313;SDS011;39202;51.468;7.146;2023-05-19T18:33:25;0.73;;;0.73;;
53313;SDS011;39202;51.468;7.146;2023-05-19T18:38:26;0.90;;;0.90;;
53313;SDS011;39202;51.468;7.146;2023-05-19T18:43:29;0.90;;;0.90;;
53313;SDS011;39202;51.468;7.146;2023-05-19T18:48:31;0.90;;;0.90;;
53313;SDS011;39202;51.468;7.146;2023-05-19T18:53:33;0.80;;;0.80;;
53313;SDS011;39202;51.468;7.146;2023-05-19T18:58:36;0.80;;;0.80;;
53313;SDS011;39202;51.468;7.146;2023-05-19T19:03:38;0.85;;;0.80;;
53313;SDS011;39202;51.468;7.146;2023-05-19T19:08:40;0.80;;;0.80;;
53313;SDS011;39202;51.468;7.146;2023-05-19T19:13:44;0.90;;;0.90;;
53313;SDS011;39202;51.468;7.146;2023-05-19T19:18:45;0.90;;;0.90;;
53313;SDS011;39202;51.468;7.146;2023-05-19T19:23:47;1.17;;;1.13;;
53313;SDS011;39202;51.468;7.146;2023-05-19T19:28:50;0.77;;;0.77;;
53313;SDS011;39202;51.468;7.146;2023-05-19T19:33:52;0.90;;;0.90;;
53313;SDS011;39202;51.468;7.146;2023-05-19T19:38:57;0.80;;;0.80;;
53313;SDS011;39202;51.468;7.146;2023-05-19T19:44:01;0.90;;;0.90;;
53313;SDS011;39202;51.468;7.146;2023-05-19T19:49:02;0.80;;;0.80;;
53313;SDS011;39202;51.468;7.146;2023-05-19T19:54:04;0.80;;;0.80;;
53313;SDS011;39202;51.468;7.146;2023-05-19T19:59:07;0.70;;;0.70;;
53313;SDS011;39202;51.468;7.146;2023-05-19T20:04:10;0.90;;;0.90;;
53313;SDS011;39202;51.468;7.146;2023-05-19T20:09:11;0.90;;;0.90;;
53313;SDS011;39202;51.468;7.146;2023-05-19T20:14:14;0.80;;;0.80;;
53313;SDS011;39202;51.468;7.146;2023-05-19T20:19:17;0.90;;;0.90;;
53313;SDS011;39202;51.468;7.146;2023-05-19T20:24:19;0.80;;;0.80;;
53313;SDS011;39202;51.468;7.146;2023-05-19T20:29:22;1.00;;;1.00;;
53313;SDS011;39202;51.468;7.146;2023-05-19T20:34:24;0.70;;;0.70;;
53313;SDS011;39202;51.468;7.146;2023-05-19T20:39:26;0.70;;;0.70;;
53313;SDS011;39202;51.468;7.146;2023-05-19T20:44:29;0.88;;;0.80;;
53313;SDS011;39202;51.468;7.146;2023-05-19T20:49:31;0.70;;;0.70;;
53313;SDS011;39202;51.468;7.146;2023-05-19T20:54:32;0.90;;;0.90;;
53313;SDS011;39202;51.468;7.146;2023-05-19T20:59:36;0.73;;;0.73;;
53313;SDS011;39202;51.468;7.146;2023-05-19T21:04:37;0.70;;;0.70;;
53313;SDS011;39202;51.468;7.146;2023-05-19T21:09:39;0.70;;;0.70;;
53313;SDS011;39202;51.468;7.146;2023-05-19T21:14:46;0.70;;;0.70;;
53313;SDS011;39202;51.468;7.146;2023-05-19T21:19:48;0.77;;;0.77;;
53313;SDS011;39202;51.468;7.146;2023-05-19T21:24:53;0.82;;;0.82;;
53313;SDS011;39202;51.468;7.146;2023-05-19T21:29:56;0.80;;;0.80;;
53313;SDS011;39202;51.468;7.146;2023-05-19T21:34:59;0.80;;;0.80;;
53313;SDS011;39202;51.468;7.146;2023-05-19T21:40:01;0.80;;;0.80;;
53313;SDS011;39202;51.468;7.146;2023-05-19T21:45:05;0.77;;;0.77;;
53313;SDS011;39202;51.468;7.146;2023-05-19T21:50:07;0.70;;;0.70;;
53313;SDS011;39202;51.468;7.146;2023-05-19T21:55:10;0.82;;;0.82;;
53313;SDS011;39202;51.468;7.146;2023-05-19T22:00:13;0.77;;;0.77;;
53313;SDS011;39202;51.468;7.146;2023-05-19T22:05:15;0.60;;;0.60;;
53313;SDS011;39202;51.468;7.146;2023-05-19T22:10:17;0.80;;;0.80;;
53313;SDS011;39202;51.468;7.146;2023-05-19T22:15:20;0.90;;;0.90;;
53313;SDS011;39202;51.468;7.146;2023-05-19T22:20:22;0.70;;;0.70;;
53313;SDS011;39202;51.468;7.146;2023-05-19T22:25:24;0.60;;;0.60;;
53313;SDS011;39202;51.468;7.146;2023-05-19T22:30:27;0.85;;;0.80;;
53313;SDS011;39202;51.468;7.146;2023-05-19T22:35:29;0.73;;;0.73;;
53313;SDS011;39202;51.468;7.146;2023-05-19T22:40:31;0.73;;;0.73;;
53313;SDS011;39202;51.468;7.146;2023-05-19T22:45:34;0.77;;;0.77;;
53313;SDS011;39202;51.468;7.146;2023-05-19T22:50:36;0.80;;;0.80;;
53313;SDS011;39202;51.468;7.146;2023-05-19T22:55:38;0.80;;;0.80;;
53313;SDS011;39202;51.468;7.146;2023-05-19T23:00:41;0.77;;;0.77;;
53313;SDS011;39202;51.468;7.146;2023-05-19T23:05:43;0.68;;;0.68;;
53313;SDS011;39202;51.468;7.146;2023-05-19T23:10:45;0.70;;;0.70;;
53313;SDS011;39202;51.468;7.146;2023-05-19T23:15:48;0.93;;;0.93;;
53313;SDS011;39202;51.468;7.146;2023-05-19T23:20:50;0.70;;;0.70;;
53313;SDS011;39202;51.468;7.146;2023-05-19T23:25:52;0.60;;;0.60;;
53313;SDS011;39202;51.468;7.146;2023-05-19T23:30:55;0.70;;;0.70;;
53313;SDS011;39202;51.468;7.146;2023-05-19T23:35:57;1.00;;;1.00;;
53313;SDS011;39202;51.468;7.146;2023-05-19T23:41:00;0.80;;;0.80;;
53313;SDS011;39202;51.468;7.146;2023-05-19T23:46:03;0.73;;;0.73;;
53313;SDS011;39202;51.468;7.146;2023-05-19T23:51:05;0.63;;;0.63;;
53313;SDS011;39202;51.468;7.146;2023-05-19T23:56:06;0.70;;;0.70;;
